sensor_id;sensor_type;location;lat;lon;timestamp;pressure;altitude;pressure_sealevel;temperature;humidity
78573;BME280;67862;0.000;0.000;2023-08-06T00:01:11;97789.06;;;23.76;59.49
78573;BME280;67862;0.000;0.000;2023-08-06T00:03:36;97797.28;;;23.76;59.91
78573;BME280;67862;0.000;0.000;2023-08-06T00:06:02;97796.47;;;23.76;59.65
78573;BME280;67862;0.000;0.000;2023-08-06T00:08:27;97793.38;;;23.77;59.65
78573;BME280;67862;0.000;0.000;2023-08-06T00:10:52;97795.31;;;23.77;59.65
78573;BME280;67862;0.000;0.000;2023-08-06T00:13:18;97792.59;;;23.77;59.69
78573;BME280;67862;0.000;0.000;2023-08-06T00:15:43;97805.50;;;23.76;59.58
78573;BME280;67862;0.000;0.000;2023-08-06T00:18:08;97796.47;;;23.76;59.70
78573;BME280;67862;0.000;0.000;2023-08-06T00:20:34;97789.06;;;23.76;59.50
78573;BME280;67862;0.000;0.000;2023-08-06T00:22:59;97782.78;;;23.76;59.45
78573;BME280;67862;0.000;0.000;2023-08-06T00:25:24;97780.03;;;23.76;59.63
78573;BME280;67862;0.000;0.000;2023-08-06T00:27:50;97769.06;;;23.76;59.41
78573;BME280;67862;0.000;0.000;2023-08-06T00:30:15;97775.34;;;23.76;59.88
78573;BME280;67862;0.000;0.000;2023-08-06T00:32:40;97772.59;;;23.76;59.72
78573;BME280;67862;0.000;0.000;2023-08-06T00:35:06;97762.78;;;23.75;59.83
78573;BME280;67862;0.000;0.000;2023-08-06T00:37:31;97760.06;;;23.75;59.84
78573;BME280;67862;0.000;0.000;2023-08-06T00:39:56;97749.91;;;23.76;59.58
78573;BME280;67862;0.000;0.000;2023-08-06T00:42:22;97751.03;;;23.75;59.68
78573;BME280;67862;0.000;0.000;2023-08-06T00:44:47;97754.56;;;23.75;59.56
78573;BME280;67862;0.000;0.000;2023-08-06T00:47:13;97757.31;;;23.75;59.83
78573;BME280;67862;0.000;0.000;2023-08-06T00:49:38;97751.03;;;23.75;59.77
78573;BME280;67862;0.000;0.000;2023-08-06T00:52:04;97748.28;;;23.75;59.63
78573;BME280;67862;0.000;0.000;2023-08-06T00:54:30;97755.72;;;23.74;59.87
78573;BME280;67862;0.000;0.000;2023-08-06T00:56:56;97749.41;;;23.74;59.69
78573;BME280;67862;0.000;0.000;2023-08-06T00:59:22;97759.25;;;23.75;59.78
78573;BME280;67862;0.000;0.000;2023-08-06T01:01:48;97755.72;;;23.74;59.75
78573;BME280;67862;0.000;0.000;2023-08-06T01:04:15;97751.03;;;23.75;59.54
78573;BME280;67862;0.000;0.000;2023-08-06T01:09:17;97745.88;;;23.73;59.69
78573;BME280;67862;0.000;0.000;2023-08-06T01:11:56;97750.22;;;23.74;59.46
78573;BME280;67862;0.000;0.000;2023-08-06T01:14:28;97737.34;;;23.75;59.56
78573;BME280;67862;0.000;0.000;2023-08-06T01:16:55;97735.72;;;23.74;59.88
78573;BME280;67862;0.000;0.000;2023-08-06T01:19:23;97737.66;;;23.73;59.60
78573;BME280;67862;0.000;0.000;2023-08-06T01:21:48;97721.22;;;23.73;59.57
78573;BME280;67862;0.000;0.000;2023-08-06T01:24:13;97732.16;;;23.73;59.82
78573;BME280;67862;0.000;0.000;2023-08-06T01:26:42;97721.22;;;23.73;59.62
78573;BME280;67862;0.000;0.000;2023-08-06T01:29:15;97718.47;;;23.73;59.82
78573;BME280;67862;0.000;0.000;2023-08-06T01:31:44;97719.28;;;23.74;60.04
78573;BME280;67862;0.000;0.000;2023-08-06T01:34:23;97703.97;;;23.73;59.84
78573;BME280;67862;0.000;0.000;2023-08-06T01:36:50;97701.22;;;23.73;59.88
78573;BME280;67862;0.000;0.000;2023-08-06T01:39:15;97691.88;;;23.74;59.61
78573;BME280;67862;0.000;0.000;2023-08-06T01:41:41;97702.38;;;23.72;59.77
78573;BME280;67862;0.000;0.000;2023-08-06T01:44:06;97697.69;;;23.72;59.81
78573;BME280;67862;0.000;0.000;2023-08-06T01:46:31;97694.94;;;23.72;60.03
78573;BME280;67862;0.000;0.000;2023-08-06T01:48:57;97685.94;;;23.72;59.82
78573;BME280;67862;0.000;0.000;2023-08-06T01:51:22;97682.06;;;23.73;59.94
78573;BME280;67862;0.000;0.000;2023-08-06T01:53:47;97681.25;;;23.72;59.89
78573;BME280;67862;0.000;0.000;2023-08-06T01:56:13;97673.03;;;23.72;59.85
78573;BME280;67862;0.000;0.000;2023-08-06T01:58:38;97674.97;;;23.72;59.70
78573;BME280;67862;0.000;0.000;2023-08-06T02:01:03;97677.72;;;23.72;60.00
78573;BME280;67862;0.000;0.000;2023-08-06T02:03:29;97670.28;;;23.72;59.99
78573;BME280;67862;0.000;0.000;2023-08-06T02:05:54;97664.81;;;23.72;59.94
78573;BME280;67862;0.000;0.000;2023-08-06T02:08:20;97664.03;;;23.72;59.55
78573;BME280;67862;0.000;0.000;2023-08-06T02:10:45;97661.28;;;23.72;60.06
78573;BME280;67862;0.000;0.000;2023-08-06T02:13:11;97658.53;;;23.72;59.71
78573;BME280;67862;0.000;0.000;2023-08-06T02:15:41;97650.31;;;23.72;59.68
78573;BME280;67862;0.000;0.000;2023-08-06T02:18:06;97656.94;;;23.70;59.95
78573;BME280;67862;0.000;0.000;2023-08-06T02:20:32;97656.94;;;23.70;59.93
78573;BME280;67862;0.000;0.000;2023-08-06T02:22:57;97656.94;;;23.70;59.77
78573;BME280;67862;0.000;0.000;2023-08-06T02:25:23;97659.69;;;23.70;59.55
78573;BME280;67862;0.000;0.000;2023-08-06T02:27:49;97658.88;;;23.70;59.85
78573;BME280;67862;0.000;0.000;2023-08-06T02:30:14;97655.34;;;23.69;59.72
78573;BME280;67862;0.000;0.000;2023-08-06T02:32:39;97654.19;;;23.70;59.76
78573;BME280;67862;0.000;0.000;2023-08-06T02:35:05;97646.78;;;23.71;59.73
78573;BME280;67862;0.000;0.000;2023-08-06T02:37:32;97645.97;;;23.70;59.63
78573;BME280;67862;0.000;0.000;2023-08-06T02:39:58;97636.97;;;23.70;59.60
78573;BME280;67862;0.000;0.000;2023-08-06T02:42:23;97638.91;;;23.69;59.73
78573;BME280;67862;0.000;0.000;2023-08-06T02:44:50;97638.91;;;23.69;60.00
78573;BME280;67862;0.000;0.000;2023-08-06T02:47:15;97630.69;;;23.69;59.80
78573;BME280;67862;0.000;0.000;2023-08-06T02:49:41;97632.63;;;23.69;59.64
78573;BME280;67862;0.000;0.000;2023-08-06T02:52:06;97633.44;;;23.69;59.77
78573;BME280;67862;0.000;0.000;2023-08-06T02:54:32;97632.63;;;23.69;60.12
78573;BME280;67862;0.000;0.000;2023-08-06T02:56:57;97638.91;;;23.69;60.03
78573;BME280;67862;0.000;0.000;2023-08-06T02:59:22;97634.56;;;23.68;59.95
78573;BME280;67862;0.000;0.000;2023-08-06T03:01:47;97620.88;;;23.68;59.78
78573;BME280;67862;0.000;0.000;2023-08-06T03:04:13;97627.94;;;23.69;59.98
78573;BME280;67862;0.000;0.000;2023-08-06T03:06:38;97622.47;;;23.69;59.77
78573;BME280;67862;0.000;0.000;2023-08-06T03:09:03;97626.34;;;23.68;59.99
78573;BME280;67862;0.000;0.000;2023-08-06T03:11:29;97620.88;;;23.68;60.10
78573;BME280;67862;0.000;0.000;2023-08-06T03:13:54;97618.47;;;23.67;60.04
78573;BME280;67862;0.000;0.000;2023-08-06T03:16:19;97626.34;;;23.68;59.90
78573;BME280;67862;0.000;0.000;2023-08-06T03:18:45;97631.84;;;23.68;60.06
78573;BME280;67862;0.000;0.000;2023-08-06T03:21:10;97623.63;;;23.68;60.09
78573;BME280;67862;0.000;0.000;2023-08-06T03:23:35;97611.88;;;23.68;59.80
78573;BME280;67862;0.000;0.000;2023-08-06T03:26:02;97609.13;;;23.68;60.06
78573;BME280;67862;0.000;0.000;2023-08-06T03:28:27;97620.09;;;23.68;59.67
78573;BME280;67862;0.000;0.000;2023-08-06T03:31:05;97620.09;;;23.68;60.04
78573;BME280;67862;0.000;0.000;2023-08-06T03:33:30;97619.28;;;23.67;60.02
78573;BME280;67862;0.000;0.000;2023-08-06T03:35:56;97622.81;;;23.68;59.70
78573;BME280;67862;0.000;0.000;2023-08-06T03:38:21;97631.03;;;23.68;60.13
78573;BME280;67862;0.000;0.000;2023-08-06T03:40:47;97624.75;;;23.67;59.89
78573;BME280;67862;0.000;0.000;2023-08-06T03:43:13;97621.22;;;23.67;60.01
78573;BME280;67862;0.000;0.000;2023-08-06T03:45:38;97612.22;;;23.66;59.93
78573;BME280;67862;0.000;0.000;2023-08-06T03:48:05;97610.25;;;23.67;59.96
78573;BME280;67862;0.000;0.000;2023-08-06T03:50:30;97610.25;;;23.67;59.80
78573;BME280;67862;0.000;0.000;2023-08-06T03:52:55;97598.50;;;23.66;60.02
78573;BME280;67862;0.000;0.000;2023-08-06T03:55:21;97601.25;;;23.66;59.68
78573;BME280;67862;0.000;0.000;2023-08-06T03:57:46;97602.06;;;23.67;60.04
78573;BME280;67862;0.000;0.000;2023-08-06T04:00:12;97604.00;;;23.66;59.83
78573;BME280;67862;0.000;0.000;2023-08-06T04:02:37;97595.78;;;23.66;60.05
78573;BME280;67862;0.000;0.000;2023-08-06T04:05:03;97591.44;;;23.65;59.69
78573;BME280;67862;0.000;0.000;2023-08-06T04:07:28;97594.19;;;23.65;59.74
78573;BME280;67862;0.000;0.000;2023-08-06T04:10:00;97593.03;;;23.66;59.83
78573;BME280;67862;0.000;0.000;2023-08-06T04:12:27;97588.69;;;23.65;59.70
78573;BME280;67862;0.000;0.000;2023-08-06T04:14:52;97589.50;;;23.66;59.91
78573;BME280;67862;0.000;0.000;2023-08-06T04:17:18;97583.22;;;23.65;60.09
78573;BME280;67862;0.000;0.000;2023-08-06T04:19:54;97584.38;;;23.64;59.63
78573;BME280;67862;0.000;0.000;2023-08-06T04:22:23;97585.16;;;23.65;59.67
78573;BME280;67862;0.000;0.000;2023-08-06T04:24:48;97584.38;;;23.64;59.98
78573;BME280;67862;0.000;0.000;2023-08-06T04:27:14;97585.16;;;23.65;59.80
78573;BME280;67862;0.000;0.000;2023-08-06T04:29:39;97585.97;;;23.65;59.83
78573;BME280;67862;0.000;0.000;2023-08-06T04:32:06;97581.63;;;23.64;59.98
78573;BME280;67862;0.000;0.000;2023-08-06T04:34:32;97578.88;;;23.64;60.04
78573;BME280;67862;0.000;0.000;2023-08-06T04:39:23;97568.72;;;23.65;59.69
78573;BME280;67862;0.000;0.000;2023-08-06T04:41:48;97564.38;;;23.64;59.97
78573;BME280;67862;0.000;0.000;2023-08-06T04:44:13;97567.09;;;23.64;60.14
78573;BME280;67862;0.000;0.000;2023-08-06T04:46:39;97564.38;;;23.64;59.95
78573;BME280;67862;0.000;0.000;2023-08-06T04:49:04;97564.38;;;23.64;59.82
78573;BME280;67862;0.000;0.000;2023-08-06T04:51:30;97569.84;;;23.64;60.08
78573;BME280;67862;0.000;0.000;2023-08-06T04:53:56;97569.03;;;23.63;60.10
78573;BME280;67862;0.000;0.000;2023-08-06T04:56:21;97563.56;;;23.63;60.15
78573;BME280;67862;0.000;0.000;2023-08-06T04:58:47;97559.22;;;23.62;59.91
78573;BME280;67862;0.000;0.000;2023-08-06T05:01:12;97547.13;;;23.63;59.91
78573;BME280;67862;0.000;0.000;2023-08-06T05:03:37;97555.34;;;23.63;59.91
78573;BME280;67862;0.000;0.000;2023-08-06T05:06:03;97552.59;;;23.63;60.21
78573;BME280;67862;0.000;0.000;2023-08-06T05:08:28;97563.56;;;23.63;59.91
78573;BME280;67862;0.000;0.000;2023-08-06T05:10:53;97557.28;;;23.63;59.91
78573;BME280;67862;0.000;0.000;2023-08-06T05:13:19;97551.00;;;23.62;59.84
78573;BME280;67862;0.000;0.000;2023-08-06T05:15:44;97548.28;;;23.62;59.89
78573;BME280;67862;0.000;0.000;2023-08-06T05:18:11;97545.53;;;23.62;59.69
78573;BME280;67862;0.000;0.000;2023-08-06T05:20:37;97551.00;;;23.62;60.14
78573;BME280;67862;0.000;0.000;2023-08-06T05:23:03;97545.53;;;23.62;59.97
78573;BME280;67862;0.000;0.000;2023-08-06T05:25:28;97544.75;;;23.62;59.86
78573;BME280;67862;0.000;0.000;2023-08-06T05:27:54;97551.00;;;23.62;59.89
78573;BME280;67862;0.000;0.000;2023-08-06T05:30:19;97550.22;;;23.62;59.72
78573;BME280;67862;0.000;0.000;2023-08-06T05:32:44;97543.94;;;23.61;60.14
78573;BME280;67862;0.000;0.000;2023-08-06T05:35:10;97547.47;;;23.62;59.68
78573;BME280;67862;0.000;0.000;2023-08-06T05:37:35;97539.25;;;23.62;60.19
78573;BME280;67862;0.000;0.000;2023-08-06T05:40:00;97536.88;;;23.60;59.85
78573;BME280;67862;0.000;0.000;2023-08-06T05:42:27;97539.25;;;23.62;60.16
78573;BME280;67862;0.000;0.000;2023-08-06T05:44:53;97532.97;;;23.61;60.08
78573;BME280;67862;0.000;0.000;2023-08-06T05:47:19;97536.88;;;23.60;59.93
78573;BME280;67862;0.000;0.000;2023-08-06T05:49:45;97534.94;;;23.61;60.05
78573;BME280;67862;0.000;0.000;2023-08-06T05:52:10;97528.66;;;23.60;60.00
78573;BME280;67862;0.000;0.000;2023-08-06T05:54:35;97530.59;;;23.60;59.88
78573;BME280;67862;0.000;0.000;2023-08-06T05:57:01;97537.66;;;23.61;60.04
78573;BME280;67862;0.000;0.000;2023-08-06T05:59:26;97536.88;;;23.60;60.03
78573;BME280;67862;0.000;0.000;2023-08-06T06:01:51;97536.88;;;23.60;60.08
78573;BME280;67862;0.000;0.000;2023-08-06T06:04:17;97518.84;;;23.59;60.05
78573;BME280;67862;0.000;0.000;2023-08-06T06:06:42;97534.47;;;23.59;60.13
78573;BME280;67862;0.000;0.000;2023-08-06T06:09:07;97529.78;;;23.59;59.93
78573;BME280;67862;0.000;0.000;2023-08-06T06:11:33;97542.34;;;23.60;60.18
78573;BME280;67862;0.000;0.000;2023-08-06T06:13:58;97540.75;;;23.59;60.02
78573;BME280;67862;0.000;0.000;2023-08-06T06:16:23;97548.97;;;23.59;59.89
78573;BME280;67862;0.000;0.000;2023-08-06T06:18:49;97546.22;;;23.59;59.97
78573;BME280;67862;0.000;0.000;2023-08-06T06:21:14;97552.50;;;23.60;60.03
78573;BME280;67862;0.000;0.000;2023-08-06T06:23:40;97558.31;;;23.58;60.16
78573;BME280;67862;0.000;0.000;2023-08-06T06:26:05;97562.66;;;23.59;59.88
78573;BME280;67862;0.000;0.000;2023-08-06T06:28:30;97563.00;;;23.58;59.91
78573;BME280;67862;0.000;0.000;2023-08-06T06:31:02;97561.88;;;23.59;59.97
78573;BME280;67862;0.000;0.000;2023-08-06T06:33:28;97561.88;;;23.59;59.90
78573;BME280;67862;0.000;0.000;2023-08-06T06:35:53;97561.03;;;23.58;59.86
78573;BME280;67862;0.000;0.000;2023-08-06T06:38:19;97559.44;;;23.57;60.06
78573;BME280;67862;0.000;0.000;2023-08-06T06:40:46;97563.78;;;23.58;60.28
78573;BME280;67862;0.000;0.000;2023-08-06T06:43:18;97554.78;;;23.58;60.09
78573;BME280;67862;0.000;0.000;2023-08-06T06:45:43;97553.97;;;23.57;60.25
78573;BME280;67862;0.000;0.000;2023-08-06T06:48:08;97552.81;;;23.58;60.22
78573;BME280;67862;0.000;0.000;2023-08-06T06:50:35;97548.50;;;23.57;59.82
78573;BME280;67862;0.000;0.000;2023-08-06T06:53:00;97540.28;;;23.57;60.15
78573;BME280;67862;0.000;0.000;2023-08-06T06:55:26;97543.00;;;23.57;59.83
78573;BME280;67862;0.000;0.000;2023-08-06T06:57:51;97536.75;;;23.57;60.08
78573;BME280;67862;0.000;0.000;2023-08-06T07:00:17;97541.41;;;23.56;60.31
78573;BME280;67862;0.000;0.000;2023-08-06T07:02:42;97533.22;;;23.56;59.84
78573;BME280;67862;0.000;0.000;2023-08-06T07:05:07;97547.69;;;23.57;59.85
78573;BME280;67862;0.000;0.000;2023-08-06T07:07:34;97549.63;;;23.56;60.23
78573;BME280;67862;0.000;0.000;2023-08-06T07:10:00;97557.84;;;23.56;59.80
78573;BME280;67862;0.000;0.000;2023-08-06T07:12:26;97561.75;;;23.55;60.20
78573;BME280;67862;0.000;0.000;2023-08-06T07:14:51;97571.56;;;23.56;60.08
78573;BME280;67862;0.000;0.000;2023-08-06T07:17:17;97572.69;;;23.55;60.01
78573;BME280;67862;0.000;0.000;2023-08-06T07:19:42;97573.50;;;23.56;59.76
78573;BME280;67862;0.000;0.000;2023-08-06T07:22:07;97572.69;;;23.55;59.94
78573;BME280;67862;0.000;0.000;2023-08-06T07:24:33;97567.22;;;23.55;59.89
78573;BME280;67862;0.000;0.000;2023-08-06T07:26:58;97561.75;;;23.55;59.89
78573;BME280;67862;0.000;0.000;2023-08-06T07:29:23;97567.22;;;23.55;60.09
78573;BME280;67862;0.000;0.000;2023-08-06T07:31:49;97556.25;;;23.55;60.07
78573;BME280;67862;0.000;0.000;2023-08-06T07:34:15;97553.84;;;23.54;59.88
78573;BME280;67862;0.000;0.000;2023-08-06T07:36:43;97561.75;;;23.55;60.13
78573;BME280;67862;0.000;0.000;2023-08-06T07:39:08;97554.63;;;23.54;59.91
78573;BME280;67862;0.000;0.000;2023-08-06T07:41:34;97554.63;;;23.54;59.82
78573;BME280;67862;0.000;0.000;2023-08-06T07:44:00;97540.16;;;23.54;60.23
78573;BME280;67862;0.000;0.000;2023-08-06T07:46:25;97536.63;;;23.53;59.93
78573;BME280;67862;0.000;0.000;2023-08-06T07:48:51;97542.09;;;23.53;60.30
78573;BME280;67862;0.000;0.000;2023-08-06T07:51:16;97544.81;;;23.53;59.83
78573;BME280;67862;0.000;0.000;2023-08-06T07:53:41;97541.28;;;23.53;60.17
78573;BME280;67862;0.000;0.000;2023-08-06T07:56:07;97547.56;;;23.53;60.08
78573;BME280;67862;0.000;0.000;2023-08-06T07:58:32;97542.09;;;23.53;60.15
78573;BME280;67862;0.000;0.000;2023-08-06T08:00:58;97548.38;;;23.54;60.23
78573;BME280;67862;0.000;0.000;2023-08-06T08:03:23;97541.28;;;23.53;59.93
78573;BME280;67862;0.000;0.000;2023-08-06T08:05:48;97544.81;;;23.53;59.92
78573;BME280;67862;0.000;0.000;2023-08-06T08:08:14;97551.44;;;23.52;59.98
78573;BME280;67862;0.000;0.000;2023-08-06T08:10:39;97565.16;;;23.52;60.29
78573;BME280;67862;0.000;0.000;2023-08-06T08:13:05;97576.09;;;23.52;60.21
78573;BME280;67862;0.000;0.000;2023-08-06T08:15:31;97578.84;;;23.52;59.95
78573;BME280;67862;0.000;0.000;2023-08-06T08:17:57;97583.53;;;23.52;60.06
78573;BME280;67862;0.000;0.000;2023-08-06T08:20:22;97590.94;;;23.51;59.98
78573;BME280;67862;0.000;0.000;2023-08-06T08:22:48;97582.72;;;23.51;59.83
78573;BME280;67862;0.000;0.000;2023-08-06T08:25:13;97581.59;;;23.52;60.27
78573;BME280;67862;0.000;0.000;2023-08-06T08:27:39;97570.63;;;23.52;60.22
78573;BME280;67862;0.000;0.000;2023-08-06T08:30:04;97565.50;;;23.51;60.05
78573;BME280;67862;0.000;0.000;2023-08-06T08:32:30;97569.03;;;23.51;60.18
78573;BME280;67862;0.000;0.000;2023-08-06T08:34:55;97582.72;;;23.51;60.05
78573;BME280;67862;0.000;0.000;2023-08-06T08:37:20;97591.75;;;23.52;59.83
78573;BME280;67862;0.000;0.000;2023-08-06T08:39:46;97590.94;;;23.51;60.00
78573;BME280;67862;0.000;0.000;2023-08-06T08:42:11;97592.88;;;23.51;60.20
78573;BME280;67862;0.000;0.000;2023-08-06T08:44:37;97596.41;;;23.51;60.02
78573;BME280;67862;0.000;0.000;2023-08-06T08:47:06;97598.34;;;23.51;60.23
78573;BME280;67862;0.000;0.000;2023-08-06T08:49:34;97592.09;;;23.50;60.09
78573;BME280;67862;0.000;0.000;2023-08-06T08:52:00;97592.88;;;23.51;60.27
78573;BME280;67862;0.000;0.000;2023-08-06T08:54:27;97588.56;;;23.50;59.83
78573;BME280;67862;0.000;0.000;2023-08-06T08:56:53;97572.13;;;23.50;60.11
78573;BME280;67862;0.000;0.000;2023-08-06T08:59:20;97558.41;;;23.50;59.99
78573;BME280;67862;0.000;0.000;2023-08-06T09:01:45;97567.44;;;23.50;59.85
78573;BME280;67862;0.000;0.000;2023-08-06T09:04:15;97563.09;;;23.49;60.20
78573;BME280;67862;0.000;0.000;2023-08-06T09:06:41;97569.38;;;23.50;60.13
78573;BME280;67862;0.000;0.000;2023-08-06T09:09:12;97579.53;;;23.49;60.26
78573;BME280;67862;0.000;0.000;2023-08-06T09:11:44;97571.31;;;23.49;59.92
78573;BME280;67862;0.000;0.000;2023-08-06T09:14:11;97566.97;;;23.48;60.23
78573;BME280;67862;0.000;0.000;2023-08-06T09:16:36;97572.47;;;23.48;60.17
78573;BME280;67862;0.000;0.000;2023-08-06T09:19:09;97581.81;;;23.47;60.26
78573;BME280;67862;0.000;0.000;2023-08-06T09:21:38;97581.81;;;23.47;60.02
78573;BME280;67862;0.000;0.000;2023-08-06T09:24:13;97581.03;;;23.47;60.00
78573;BME280;67862;0.000;0.000;2023-08-06T09:26:41;97591.97;;;23.47;59.87
78573;BME280;67862;0.000;0.000;2023-08-06T09:29:07;97599.84;;;23.48;59.74
78573;BME280;67862;0.000;0.000;2023-08-06T09:34:28;97622.91;;;23.47;60.00
78573;BME280;67862;0.000;0.000;2023-08-06T09:36:54;97628.38;;;23.47;59.86
78573;BME280;67862;0.000;0.000;2023-08-06T09:39:20;97619.38;;;23.47;60.10
78573;BME280;67862;0.000;0.000;2023-08-06T09:41:46;97618.56;;;23.46;59.98
78573;BME280;67862;0.000;0.000;2023-08-06T09:44:16;97618.56;;;23.46;59.87
78573;BME280;67862;0.000;0.000;2023-08-06T09:46:46;97619.38;;;23.47;60.03
78573;BME280;67862;0.000;0.000;2023-08-06T09:49:12;97618.56;;;23.46;59.88
78573;BME280;67862;0.000;0.000;2023-08-06T09:51:37;97624.06;;;23.46;59.80
78573;BME280;67862;0.000;0.000;2023-08-06T09:54:04;97627.94;;;23.45;59.87
78573;BME280;67862;0.000;0.000;2023-08-06T09:56:30;97631.47;;;23.46;59.96
78573;BME280;67862;0.000;0.000;2023-08-06T09:59:05;97634.22;;;23.46;59.88
78573;BME280;67862;0.000;0.000;2023-08-06T10:01:34;97637.75;;;23.46;60.21
78573;BME280;67862;0.000;0.000;2023-08-06T10:04:00;97641.63;;;23.45;60.03
78573;BME280;67862;0.000;0.000;2023-08-06T10:06:26;97647.91;;;23.46;60.04
78573;BME280;67862;0.000;0.000;2023-08-06T10:08:53;97648.69;;;23.46;60.17
78573;BME280;67862;0.000;0.000;2023-08-06T10:11:19;97652.59;;;23.45;60.13
78573;BME280;67862;0.000;0.000;2023-08-06T10:13:47;97660.78;;;23.45;59.93
78573;BME280;67862;0.000;0.000;2023-08-06T10:16:13;97655.31;;;23.45;60.29
78573;BME280;67862;0.000;0.000;2023-08-06T10:18:40;97660.78;;;23.45;59.99
78573;BME280;67862;0.000;0.000;2023-08-06T10:21:09;97654.50;;;23.45;60.08
78573;BME280;67862;0.000;0.000;2023-08-06T10:23:35;97650.94;;;23.44;60.07
78573;BME280;67862;0.000;0.000;2023-08-06T10:26:02;97641.94;;;23.43;59.93
78573;BME280;67862;0.000;0.000;2023-08-06T10:28:35;97635.66;;;23.43;60.28
78573;BME280;67862;0.000;0.000;2023-08-06T10:31:04;97632.59;;;23.45;59.91
78573;BME280;67862;0.000;0.000;2023-08-06T10:36:14;97626.31;;;23.44;59.82
78573;BME280;67862;0.000;0.000;2023-08-06T10:38:52;97639.53;;;23.42;59.91
78573;BME280;67862;0.000;0.000;2023-08-06T10:41:22;97643.88;;;23.43;60.19
78573;BME280;67862;0.000;0.000;2023-08-06T10:43:49;97641.16;;;23.43;59.82
78573;BME280;67862;0.000;0.000;2023-08-06T10:46:27;97643.09;;;23.42;59.92
78573;BME280;67862;0.000;0.000;2023-08-06T10:48:52;97650.50;;;23.42;60.00
78573;BME280;67862;0.000;0.000;2023-08-06T10:51:18;97640.69;;;23.41;60.19
78573;BME280;67862;0.000;0.000;2023-08-06T10:53:47;97650.50;;;23.42;60.26
78573;BME280;67862;0.000;0.000;2023-08-06T10:56:13;97652.44;;;23.41;59.91
78573;BME280;67862;0.000;0.000;2023-08-06T10:58:39;97661.47;;;23.42;59.91
78573;BME280;67862;0.000;0.000;2023-08-06T11:01:05;97666.13;;;23.41;59.71
78573;BME280;67862;0.000;0.000;2023-08-06T11:03:31;97666.13;;;23.41;59.96
78573;BME280;67862;0.000;0.000;2023-08-06T11:05:57;97673.56;;;23.41;60.27
78573;BME280;67862;0.000;0.000;2023-08-06T11:08:25;97670.81;;;23.41;60.17
78573;BME280;67862;0.000;0.000;2023-08-06T11:10:51;97669.22;;;23.40;60.02
78573;BME280;67862;0.000;0.000;2023-08-06T11:13:17;97676.28;;;23.41;59.93
78573;BME280;67862;0.000;0.000;2023-08-06T11:15:44;97676.28;;;23.41;59.88
78573;BME280;67862;0.000;0.000;2023-08-06T11:18:09;97680.97;;;23.40;60.09
78573;BME280;67862;0.000;0.000;2023-08-06T11:20:35;97684.84;;;23.39;60.05
78573;BME280;67862;0.000;0.000;2023-08-06T11:23:00;97690.31;;;23.39;60.26
78573;BME280;67862;0.000;0.000;2023-08-06T11:25:26;97682.91;;;23.40;60.20
78573;BME280;67862;0.000;0.000;2023-08-06T11:27:51;97687.59;;;23.39;59.83
78573;BME280;67862;0.000;0.000;2023-08-06T11:30:16;97688.38;;;23.40;60.18
78573;BME280;67862;0.000;0.000;2023-08-06T11:32:45;97682.47;;;23.38;60.16
78573;BME280;67862;0.000;0.000;2023-08-06T11:35:12;97681.31;;;23.39;59.84
78573;BME280;67862;0.000;0.000;2023-08-06T11:37:38;97677.78;;;23.38;60.29
78573;BME280;67862;0.000;0.000;2023-08-06T11:40:07;97684.06;;;23.39;59.78
78573;BME280;67862;0.000;0.000;2023-08-06T11:42:34;97683.25;;;23.38;60.25
78573;BME280;67862;0.000;0.000;2023-08-06T11:45:01;97682.47;;;23.38;60.18
78573;BME280;67862;0.000;0.000;2023-08-06T11:47:27;97694.22;;;23.38;60.08
78573;BME280;67862;0.000;0.000;2023-08-06T11:49:52;97694.22;;;23.38;59.92
78573;BME280;67862;0.000;0.000;2023-08-06T11:52:21;97687.94;;;23.38;60.10
78573;BME280;67862;0.000;0.000;2023-08-06T11:55:01;97694.22;;;23.38;59.91
78573;BME280;67862;0.000;0.000;2023-08-06T11:57:35;97701.63;;;23.38;59.84
78573;BME280;67862;0.000;0.000;2023-08-06T12:00:10;97702.75;;;23.37;60.18
78573;BME280;67862;0.000;0.000;2023-08-06T12:02:38;97698.88;;;23.38;59.81
78573;BME280;67862;0.000;0.000;2023-08-06T12:05:09;97691.81;;;23.37;60.02
78573;BME280;67862;0.000;0.000;2023-08-06T12:07:45;97700.81;;;23.37;60.07
78573;BME280;67862;0.000;0.000;2023-08-06T12:10:11;97697.28;;;23.37;59.77
78573;BME280;67862;0.000;0.000;2023-08-06T12:12:37;97701.97;;;23.36;59.69
78573;BME280;67862;0.000;0.000;2023-08-06T12:15:03;97702.75;;;23.37;60.02
78573;BME280;67862;0.000;0.000;2023-08-06T12:17:29;97710.97;;;23.37;60.18
78573;BME280;67862;0.000;0.000;2023-08-06T12:19:54;97713.72;;;23.37;60.04
78573;BME280;67862;0.000;0.000;2023-08-06T12:22:20;97717.59;;;23.36;59.82
78573;BME280;67862;0.000;0.000;2023-08-06T12:24:46;97714.88;;;23.36;60.04
78573;BME280;67862;0.000;0.000;2023-08-06T12:27:11;97720.34;;;23.36;60.12
78573;BME280;67862;0.000;0.000;2023-08-06T12:29:39;97715.97;;;23.35;59.89
78573;BME280;67862;0.000;0.000;2023-08-06T12:32:05;97714.88;;;23.36;60.10
78573;BME280;67862;0.000;0.000;2023-08-06T12:34:31;97714.03;;;23.35;59.88
78573;BME280;67862;0.000;0.000;2023-08-06T12:36:56;97720.66;;;23.34;59.96
78573;BME280;67862;0.000;0.000;2023-08-06T12:39:21;97718.72;;;23.35;59.69
78573;BME280;67862;0.000;0.000;2023-08-06T12:41:47;97721.44;;;23.35;60.09
78573;BME280;67862;0.000;0.000;2023-08-06T12:44:12;97721.44;;;23.35;59.80
78573;BME280;67862;0.000;0.000;2023-08-06T12:46:38;97714.38;;;23.34;59.79
78573;BME280;67862;0.000;0.000;2023-08-06T12:49:03;97725.31;;;23.34;60.29
78573;BME280;67862;0.000;0.000;2023-08-06T12:51:29;97729.66;;;23.35;59.91
78573;BME280;67862;0.000;0.000;2023-08-06T12:53:54;97725.31;;;23.34;60.09
78573;BME280;67862;0.000;0.000;2023-08-06T12:56:19;97725.31;;;23.34;59.87
78573;BME280;67862;0.000;0.000;2023-08-06T12:58:45;97725.31;;;23.34;60.03
78573;BME280;67862;0.000;0.000;2023-08-06T13:01:10;97724.53;;;23.33;60.21
78573;BME280;67862;0.000;0.000;2023-08-06T13:03:35;97730.00;;;23.33;60.12
78573;BME280;67862;0.000;0.000;2023-08-06T13:06:00;97718.25;;;23.33;59.73
78573;BME280;67862;0.000;0.000;2023-08-06T13:08:26;97737.41;;;23.33;59.15
78573;BME280;67862;0.000;0.000;2023-08-06T13:10:51;97716.66;;;23.32;59.14
78573;BME280;67862;0.000;0.000;2023-08-06T13:13:17;97725.66;;;23.32;59.48
78573;BME280;67862;0.000;0.000;2023-08-06T13:15:42;97726.00;;;23.31;59.08